Time;durP1;ratioP1;P1;durP2;ratioP2;P2;SDS_P1;SDS_P2;PMS_P1;PMS_P2;Temp;Humidity;BMP_temperature;BMP_pressure;BME280_temperature;BME280_humidity;BME280_pressure;Samples;Min_cycle;Max_cycle;Signal;HPM_P1;HPM_P2
2021/06/10 00:00:56;;;;;;;4.70;3.20;;;;;;;14.19;67.82;98607.19;126455;1093;22842;-83
2021/06/10 00:03:23;;;;;;;4.83;3.30;;;;;;;14.22;68.23;98603.93;126449;1092;22837;-83
2021/06/10 00:06:05;;;;;;;5.25;3.35;;;;;;;14.23;67.77;98608.30;126283;1093;22769;-82
2021/06/10 00:08:34;;;;;;;3.50;3.00;;;;;;;14.23;67.90;98612.96;126376;1093;23744;-82
2021/06/10 00:11:01;;;;;;;7.03;3.08;;;;;;;14.19;67.62;98604.45;126401;1093;24441;-82
2021/06/10 00:13:28;;;;;;;5.97;3.47;;;;;;;14.16;67.88;98602.23;126440;1093;22777;-82
2021/06/10 00:15:55;;;;;;;4.00;3.30;;;;;;;14.14;67.98;98609.89;126268;1093;22778;-82
2021/06/10 00:18:36;;;;;;;5.35;3.50;;;;;;;14.12;67.89;98608.52;126297;1093;27332;-82
2021/06/10 00:21:04;;;;;;;4.30;3.15;;;;;;;14.11;67.87;98602.23;126506;1093;24623;-82
2021/06/10 00:23:31;;;;;;;7.47;2.83;;;;;;;14.11;67.97;98607.70;126544;1092;24441;-83
2021/06/10 00:26:12;;;;;;;5.15;2.90;;;;;;;14.11;67.80;98606.86;126344;1093;22748;-82
2021/06/10 00:28:39;;;;;;;7.50;3.40;;;;;;;14.04;67.96;98599.72;126406;1093;22875;-82
2021/06/10 00:31:06;;;;;;;4.90;3.55;;;;;;;14.03;68.02;98592.58;126399;1093;26280;-82
2021/06/10 00:33:33;;;;;;;8.35;3.15;;;;;;;14.03;68.35;98599.98;126464;1093;22992;-82
2021/06/10 00:35:59;;;;;;;5.65;3.60;;;;;;;13.99;68.44;98604.34;126432;1093;26239;-82
2021/06/10 00:38:27;;;;;;;5.35;3.60;;;;;;;13.96;68.13;98597.46;126270;1093;22761;-82
2021/06/10 00:40:54;;;;;;;6.75;3.05;;;;;;;13.95;68.68;98595.83;126456;1093;26293;-82
2021/06/10 00:43:21;;;;;;;5.40;3.35;;;;;;;13.92;68.79;98601.83;126525;1093;22866;-82
2021/06/10 00:45:47;;;;;;;5.90;3.15;;;;;;;13.88;68.37;98589.73;126285;1093;22880;-82
2021/06/10 00:48:14;;;;;;;5.60;3.30;;;;;;;13.88;68.54;98588.91;126340;1092;22738;-82
2021/06/10 00:50:44;;;;;;;3.95;3.50;;;;;;;13.88;68.96;98597.94;126601;1092;22761;-82
2021/06/10 00:53:25;;;;;;;5.30;3.40;;;;;;;13.88;68.63;98597.13;126354;1093;22867;-82
2021/06/10 00:55:56;;;;;;;4.20;3.60;;;;;;;13.86;68.92;98595.50;126488;1093;23116;-82
2021/06/10 00:58:24;;;;;;;4.07;3.60;;;;;;;13.85;69.11;98598.49;126420;1093;25865;-81
2021/06/10 01:00:52;;;;;;;5.35;3.55;;;;;;;13.83;68.65;98590.54;126458;1092;24267;-81
2021/06/10 01:03:34;;;;;;;3.20;2.90;;;;;;;13.81;68.84;98598.20;126394;1093;22748;-81
2021/06/10 01:06:10;;;;;;;7.10;3.20;;;;;;;13.78;68.79;98600.63;126329;1093;22840;-81
2021/06/10 01:08:49;;;;;;;3.40;3.10;;;;;;;13.74;69.41;98596.75;126038;1093;22784;-81
2021/06/10 01:11:57;;;;;;;5.75;3.25;;;;;;;13.68;68.94;98595.89;126213;1092;22889;-81
2021/06/10 01:14:54;;;;;;;5.40;3.20;;;;;;;13.60;69.29;98599.13;126082;1093;22735;-81
2021/06/10 01:17:23;;;;;;;5.57;3.47;;;;;;;13.50;70.41;98585.36;126230;1092;25950;-81
2021/06/10 01:20:12;;;;;;;3.40;3.00;;;;;;;13.36;70.63;98591.25;126127;1092;26060;-81
2021/06/10 01:22:48;;;;;;;8.57;3.70;;;;;;;13.23;70.64;98581.54;126313;1093;22771;-81
2021/06/10 01:25:46;;;;;;;5.50;3.50;;;;;;;13.16;70.70;98577.38;126305;1091;25945;-81
2021/06/10 01:28:26;;;;;;;10.05;3.10;;;;;;;13.10;71.85;98580.06;126482;1092;22754;-81
2021/06/10 01:30:56;;;;;;;6.10;3.70;;;;;;;13.09;71.17;98583.86;126568;1093;25871;-81
2021/06/10 01:33:45;;;;;;;5.95;3.70;;;;;;;13.10;72.22;98582.80;126471;1093;22803;-81
2021/06/10 01:36:37;;;;;;;4.70;3.30;;;;;;;13.06;72.00;98578.91;126521;1093;27188;-81
2021/06/10 01:39:10;;;;;;;7.50;4.00;;;;;;;13.02;72.13;98585.16;126515;1093;24403;-81
2021/06/10 01:41:39;;;;;;;4.95;3.75;;;;;;;12.99;72.40;98575.55;126540;1092;27226;-81
2021/06/10 01:44:07;;;;;;;4.10;3.00;;;;;;;13.03;72.35;98581.33;126658;1093;25865;-82
2021/06/10 01:46:51;;;;;;;6.10;3.40;;;;;;;13.06;72.52;98581.63;126367;1093;23550;-81
2021/06/10 01:49:19;;;;;;;7.28;3.50;;;;;;;13.05;72.39;98582.73;126506;1093;22757;-82
2021/06/10 01:51:47;;;;;;;4.43;3.45;;;;;;;13.02;72.66;98587.89;126487;1093;22796;-82
2021/06/10 01:54:16;;;;;;;6.30;3.70;;;;;;;12.99;72.66;98581.02;126504;1093;22869;-81
2021/06/10 01:56:43;;;;;;;5.28;3.35;;;;;;;12.99;73.01;98583.75;126645;1093;22810;-82
2021/06/10 01:59:12;;;;;;;3.75;3.05;;;;;;;13.01;72.75;98584.31;126328;1092;26235;-82
2021/06/10 02:01:54;;;;;;;3.55;3.20;;;;;;;13.03;72.34;98586.80;126572;1092;22768;-81
2021/06/10 02:04:22;;;;;;;8.85;3.80;;;;;;;13.02;72.92;98585.98;126484;1092;22892;-82
2021/06/10 02:06:50;;;;;;;3.75;3.30;;;;;;;13.04;72.60;98592.01;126458;1093;22768;-82
2021/06/10 02:09:20;;;;;;;8.50;3.80;;;;;;;13.02;72.97;98580.51;126303;1093;24402;-82
2021/06/10 02:11:48;;;;;;;7.07;3.60;;;;;;;13.00;72.47;98585.41;126487;1092;24290;-82
2021/06/10 02:14:19;;;;;;;3.55;3.20;;;;;;;12.96;72.34;98591.64;126517;1093;24566;-82
2021/06/10 02:16:48;;;;;;;3.30;3.00;;;;;;;12.91;72.78;98589.70;126381;1092;24441;-82
2021/06/10 02:19:16;;;;;;;3.95;3.20;;;;;;;12.86;72.61;98582.26;126466;1093;22790;-82
2021/06/10 02:21:57;;;;;;;5.30;3.40;;;;;;;12.86;72.87;98586.91;126478;1093;22852;-82
2021/06/10 02:24:24;;;;;;;6.75;3.65;;;;;;;12.85;73.00;98591.53;126270;1093;27332;-82
2021/06/10 02:26:51;;;;;;;5.60;3.47;;;;;;;12.86;72.97;98597.84;126354;1093;22815;-82
2021/06/10 02:29:18;;;;;;;5.85;3.40;;;;;;;12.84;73.47;98598.09;126523;1093;25864;-82
2021/06/10 02:31:44;;;;;;;4.40;3.05;;;;;;;12.84;72.86;98602.74;126457;1093;25336;-82
2021/06/10 02:34:13;;;;;;;5.70;3.50;;;;;;;12.82;73.07;98602.99;126286;1093;22857;-81
2021/06/10 02:36:42;;;;;;;5.90;3.70;;;;;;;12.81;72.87;98600.52;126293;1093;22806;-82
2021/06/10 02:39:12;;;;;;;4.78;3.50;;;;;;;12.80;72.76;98596.97;126343;1092;22912;-82
2021/06/10 02:41:53;;;;;;;7.65;3.55;;;;;;;12.82;73.09;98592.06;126446;1092;26296;-82
2021/06/10 02:44:20;;;;;;;4.00;3.45;;;;;;;12.86;73.48;98597.84;126319;1093;22754;-82
2021/06/10 02:46:48;;;;;;;4.80;3.00;;;;;;;12.93;73.61;98603.93;126420;1093;22868;-82
2021/06/10 02:49:18;;;;;;;4.85;3.60;;;;;;;12.97;73.37;98606.98;126654;1092;22746;-82
2021/06/10 02:51:45;;;;;;;5.65;4.15;;;;;;;13.01;73.37;98608.10;126513;1093;22760;-82
2021/06/10 02:54:17;;;;;;;7.20;3.50;;;;;;;13.06;72.70;98608.16;126562;1093;26238;-82
2021/06/10 02:56:45;;;;;;;6.40;4.10;;;;;;;13.08;72.33;98606.84;126544;1093;23207;-81
2021/06/10 02:59:16;;;;;;;6.83;4.00;;;;;;;13.10;72.25;98604.66;126402;1093;27157;-82
2021/06/10 03:01:44;;;;;;;7.53;3.67;;;;;;;13.11;72.32;98606.30;126494;1093;24402;-82
2021/06/10 03:04:15;;;;;;;4.53;3.78;;;;;;;13.15;72.66;98609.34;126577;1093;26258;-82
2021/06/10 03:06:43;;;;;;;3.55;3.20;;;;;;;13.20;72.06;98606.66;126542;1092;22760;-82
2021/06/10 03:09:13;;;;;;;7.40;3.75;;;;;;;13.25;72.44;98614.10;126538;1093;22785;-82
2021/06/10 03:11:56;;;;;;;8.35;3.90;;;;;;;13.28;72.35;98614.41;126574;1092;25420;-82
2021/06/10 03:14:24;;;;;;;4.15;3.75;;;;;;;13.29;72.56;98613.30;126416;1092;24155;-82
2021/06/10 03:17:07;;;;;;;6.45;3.95;;;;;;;13.32;72.68;98613.93;126535;1092;22806;-81
2021/06/10 03:19:34;;;;;;;6.40;3.73;;;;;;;13.32;72.46;98619.40;126602;1093;22805;-82
2021/06/10 03:22:03;;;;;;;5.05;3.90;;;;;;;13.32;72.43;98614.75;126436;1093;24436;-81
2021/06/10 03:24:31;;;;;;;8.20;4.57;;;;;;;13.34;72.85;98609.02;126512;1093;22854;-82
2021/06/10 03:26:59;;;;;;;8.33;4.75;;;;;;;13.35;72.68;98622.44;126597;1092;22920;-82
2021/06/10 03:29:26;;;;;;;5.20;3.90;;;;;;;13.38;72.75;98618.34;126340;1093;23538;-82
2021/06/10 03:31:54;;;;;;;9.00;4.50;;;;;;;13.39;72.41;98625.48;126527;1093;27195;-82
2021/06/10 03:34:22;;;;;;;8.50;4.60;;;;;;;13.41;72.19;98623.31;126418;1093;22843;-82
2021/06/10 03:36:49;;;;;;;5.40;4.40;;;;;;;13.43;72.66;98624.69;126648;1092;23654;-82
2021/06/10 03:39:19;;;;;;;6.60;4.45;;;;;;;13.48;73.18;98627.47;126349;1093;26280;-82
2021/06/10 03:41:48;;;;;;;6.93;4.87;;;;;;;13.52;72.97;98627.78;126471;1092;23268;-81
2021/06/10 03:44:16;;;;;;;7.10;5.40;;;;;;;13.54;72.46;98628.34;126314;1092;22747;-81
2021/06/10 03:46:43;;;;;;;7.55;5.43;;;;;;;13.56;72.51;98631.63;126449;1093;23390;-82
2021/06/10 03:49:25;;;;;;;11.07;5.37;;;;;;;13.57;72.08;98630.56;126547;1092;22754;-82
2021/06/10 03:51:54;;;;;;;11.00;6.00;;;;;;;13.58;72.44;98629.48;126339;1093;22762;-82
2021/06/10 03:54:22;;;;;;;11.53;5.55;;;;;;;13.60;72.31;98632.78;126509;1092;22782;-82
2021/06/10 03:56:49;;;;;;;7.90;5.30;;;;;;;13.62;72.50;98616.92;126463;1093;26252;-81
2021/06/10 03:59:16;;;;;;;11.05;6.20;;;;;;;13.65;72.07;98627.36;126381;1093;22765;-81
2021/06/10 04:01:43;;;;;;;15.05;6.30;;;;;;;13.68;72.14;98625.99;126293;1093;22941;-81
2021/06/10 04:04:10;;;;;;;9.65;6.40;;;;;;;13.71;71.95;98630.14;126345;1093;22840;-81
2021/06/10 04:06:38;;;;;;;10.93;6.57;;;;;;;13.74;71.80;98627.70;126321;1093;23367;-81
2021/06/10 04:09:08;;;;;;;11.10;7.40;;;;;;;13.79;71.58;98626.91;126486;1092;27342;-82
2021/06/10 04:11:38;;;;;;;10.33;7.40;;;;;;;13.82;71.73;98612.70;126457;1092;22838;-82
2021/06/10 04:14:06;;;;;;;12.85;7.50;;;;;;;13.85;71.35;98620.39;126474;1093;22769;-82
2021/06/10 04:16:47;;;;;;;11.10;6.30;;;;;;;13.91;71.71;98624.80;126422;1093;22874;-82
2021/06/10 04:19:14;;;;;;;16.40;7.10;;;;;;;13.94;71.62;98624.28;126486;1093;22761;-82
2021/06/10 04:21:41;;;;;;;11.05;6.70;;;;;;;13.99;71.01;98618.84;126436;1093;22858;-81
2021/06/10 04:24:08;;;;;;;11.47;6.83;;;;;;;14.04;71.14;98624.36;126432;1092;22781;-82
2021/06/10 04:26:35;;;;;;;14.63;7.17;;;;;;;14.11;71.73;98624.14;126314;1092;23533;-82
2021/06/10 04:29:02;;;;;;;10.63;7.30;;;;;;;14.15;71.14;98624.44;126362;1093;22916;-82
2021/06/10 04:31:28;;;;;;;9.90;6.90;;;;;;;14.17;71.50;98619.52;126288;1093;26066;-81
2021/06/10 04:33:55;;;;;;;13.35;6.65;;;;;;;14.19;71.17;98629.10;126609;1092;24213;-81
2021/06/10 04:36:22;;;;;;;10.15;6.60;;;;;;;14.26;71.40;98633.54;126246;1093;22916;-81
2021/06/10 04:38:50;;;;;;;11.97;7.27;;;;;;;14.31;71.40;98631.64;126389;1093;26289;-81
2021/06/10 04:41:32;;;;;;;11.55;7.15;;;;;;;14.36;71.69;98636.31;126389;1093;22912;-81
2021/06/10 04:43:59;;;;;;;13.80;7.65;;;;;;;14.43;71.42;98631.45;126353;1093;25980;-81
2021/06/10 04:46:25;;;;;;;13.10;7.30;;;;;;;14.48;71.46;98634.19;126283;1093;25976;-81
2021/06/10 04:48:54;;;;;;;10.95;6.90;;;;;;;14.53;71.07;98630.66;126409;1093;23047;-81
2021/06/10 04:51:21;;;;;;;16.95;8.90;;;;;;;14.55;71.24;98629.29;126568;1093;28468;-81
2021/06/10 04:53:48;;;;;;;12.35;7.25;;;;;;;14.61;71.17;98632.94;126245;1093;22785;-81
2021/06/10 04:56:17;;;;;;;12.00;6.40;;;;;;;14.68;71.12;98635.41;126335;1093;22944;-81
2021/06/10 04:58:44;;;;;;;13.30;6.70;;;;;;;14.75;71.09;98633.23;126307;1093;26099;-81
2021/06/10 05:01:11;;;;;;;10.40;6.70;;;;;;;14.83;71.04;98627.25;126454;1093;22784;-81
2021/06/10 05:03:38;;;;;;;9.77;6.57;;;;;;;14.90;70.85;98629.75;126515;1092;22765;-81
2021/06/10 05:06:05;;;;;;;12.35;7.10;;;;;;;14.97;70.95;98622.09;126327;1093;22913;-82
2021/06/10 05:08:32;;;;;;;10.20;6.57;;;;;;;15.02;70.95;98624.04;126283;1093;24437;-82
2021/06/10 05:11:00;;;;;;;9.75;7.20;;;;;;;15.07;70.68;98626.77;126353;1093;22901;-82
2021/06/10 05:13:42;;;;;;;16.93;7.67;;;;;;;15.12;70.76;98619.40;126514;1093;22857;-82
2021/06/10 05:16:09;;;;;;;13.27;6.83;;;;;;;15.19;70.75;98627.34;126308;1093;22781;-82
2021/06/10 05:18:36;;;;;;;15.10;7.00;;;;;;;15.25;70.62;98617.23;126471;1093;22739;-82
2021/06/10 05:21:17;;;;;;;15.35;7.60;;;;;;;15.31;70.73;98622.43;126647;1093;27192;-82
2021/06/10 05:23:44;;;;;;;12.30;6.93;;;;;;;15.34;70.92;98621.89;126328;1093;27349;-82
2021/06/10 05:26:26;;;;;;;13.13;7.07;;;;;;;15.41;70.90;98629.05;126288;1093;22854;-82
2021/06/10 05:28:53;;;;;;;11.85;6.95;;;;;;;15.45;71.02;98625.47;126360;1093;22687;-82
2021/06/10 05:31:21;;;;;;;11.23;6.93;;;;;;;15.55;70.91;98625.48;126273;1093;28487;-81
2021/06/10 05:33:52;;;;;;;9.90;6.28;;;;;;;15.63;70.92;98626.04;126388;1093;22754;-82
2021/06/10 05:36:19;;;;;;;13.33;6.40;;;;;;;15.73;71.04;98624.12;126610;1093;26235;-81
2021/06/10 05:38:46;;;;;;;12.27;6.70;;;;;;;15.85;71.10;98623.06;126301;1093;22758;-81
2021/06/10 05:41:13;;;;;;;9.80;5.83;;;;;;;15.94;70.48;98615.91;126407;1092;26296;-82
2021/06/10 05:43:40;;;;;;;11.17;5.77;;;;;;;16.05;70.28;98612.03;126291;1093;22784;-81
2021/06/10 05:46:07;;;;;;;8.58;5.48;;;;;;;16.17;70.07;98617.25;126599;1093;22754;-82
2021/06/10 05:48:34;;;;;;;7.77;4.70;;;;;;;16.29;69.34;98616.95;126530;1092;27548;-82
2021/06/10 05:51:01;;;;;;;11.40;5.75;;;;;;;16.39;69.25;98616.09;126480;1093;22761;-82
2021/06/10 05:53:27;;;;;;;7.53;5.15;;;;;;;16.49;68.60;98624.31;126205;1092;25823;-82
2021/06/10 05:55:54;;;;;;;11.50;5.17;;;;;;;16.58;68.44;98619.88;126443;1093;26421;-82
2021/06/10 05:58:21;;;;;;;10.80;5.70;;;;;;;16.67;67.88;98617.38;126319;1093;22842;-82
2021/06/10 06:00:50;;;;;;;10.20;5.20;;;;;;;16.74;67.44;98623.39;126347;1093;22898;-82
2021/06/10 06:03:17;;;;;;;7.13;5.33;;;;;;;16.82;67.39;98619.22;126521;1092;24437;-82
2021/06/10 06:05:43;;;;;;;12.50;5.23;;;;;;;16.91;67.11;98622.24;126281;1093;26382;-82
2021/06/10 06:08:11;;;;;;;9.23;4.25;;;;;;;17.00;66.25;98617.81;126341;1093;27249;-82
2021/06/10 06:10:38;;;;;;;10.45;4.70;;;;;;;17.10;66.19;98622.42;126291;1093;22912;-82
2021/06/10 06:13:07;;;;;;;4.95;3.53;;;;;;;17.19;65.14;98620.71;126570;1093;22759;-81
2021/06/10 06:15:35;;;;;;;9.70;4.45;;;;;;;17.29;65.60;98622.59;126270;1092;22780;-82
2021/06/10 06:18:02;;;;;;;9.88;4.88;;;;;;;17.38;65.54;98618.13;126348;1093;25893;-82
2021/06/10 06:20:29;;;;;;;7.73;4.23;;;;;;;17.49;64.03;98611.42;126394;1093;22797;-82
2021/06/10 06:22:56;;;;;;;3.98;2.05;;;;;;;17.58;61.51;98615.23;126270;1093;27701;-82
2021/06/10 06:25:27;;;;;;;2.57;1.50;;;;;;;17.70;58.13;98620.36;126137;1093;22780;-82
2021/06/10 06:27:58;;;;;;;1.45;1.30;;;;;;;17.82;57.79;98615.30;126180;1093;23038;-82
2021/06/10 06:30:26;;;;;;;1.95;1.40;;;;;;;17.94;55.74;98623.22;126020;1092;22784;-82
2021/06/10 06:32:53;;;;;;;2.10;1.90;;;;;;;18.05;55.24;98618.44;126095;1093;22757;-82
2021/06/10 06:35:20;;;;;;;4.00;1.30;;;;;;;18.14;54.81;98626.90;126089;1092;22784;-82
2021/06/10 06:37:49;;;;;;;1.60;1.10;;;;;;;18.26;53.48;98626.52;126012;1093;22774;-81
2021/06/10 06:40:19;;;;;;;1.15;1.05;;;;;;;18.36;49.94;98635.50;126032;1093;22787;-81
2021/06/10 06:42:46;;;;;;;3.18;1.03;;;;;;;18.45;50.47;98627.41;126207;1092;22811;-81
2021/06/10 06:45:13;;;;;;;2.10;1.10;;;;;;;18.53;51.74;98620.42;126210;1093;26280;-82
2021/06/10 06:47:41;;;;;;;2.88;1.23;;;;;;;18.63;50.42;98622.22;126182;1093;24406;-81
2021/06/10 06:50:08;;;;;;;2.85;1.00;;;;;;;18.73;49.93;98631.22;126014;1093;22769;-81
2021/06/10 06:52:35;;;;;;;1.97;0.90;;;;;;;18.81;50.74;98635.25;126132;1092;24136;-81
2021/06/10 06:55:03;;;;;;;1.43;0.98;;;;;;;18.88;50.20;98621.95;126165;1092;22784;-81
2021/06/10 06:57:30;;;;;;;1.20;1.08;;;;;;;18.94;50.17;98631.80;126005;1093;22772;-81
2021/06/10 06:59:56;;;;;;;2.43;1.23;;;;;;;19.02;49.55;98627.57;126170;1093;22792;-81
2021/06/10 07:02:23;;;;;;;1.45;1.00;;;;;;;19.10;48.01;98634.36;126032;1093;22757;-81
2021/06/10 07:04:50;;;;;;;1.20;1.10;;;;;;;19.14;48.38;98633.48;126165;1093;24402;-81
2021/06/10 07:07:17;;;;;;;2.73;1.35;;;;;;;19.20;47.58;98630.66;126192;1093;22863;-80
2021/06/10 07:09:44;;;;;;;2.40;1.28;;;;;;;19.28;48.37;98636.33;126176;1093;24138;-81
2021/06/10 07:12:11;;;;;;;3.95;1.33;;;;;;;19.38;47.71;98631.77;126193;1093;22915;-81
2021/06/10 07:14:38;;;;;;;1.90;1.20;;;;;;;19.44;47.57;98631.41;126052;1093;22784;-81
2021/06/10 07:17:22;;;;;;;3.20;1.55;;;;;;;19.52;48.22;98625.18;126221;1093;22958;-81
2021/06/10 07:19:51;;;;;;;2.40;1.60;;;;;;;19.63;47.91;98636.08;126039;1093;22925;-82
2021/06/10 07:22:19;;;;;;;3.05;1.20;;;;;;;19.72;46.79;98634.27;126235;1093;22757;-81
2021/06/10 07:24:46;;;;;;;1.38;1.25;;;;;;;19.79;49.62;98636.69;126293;1093;22781;-82
2021/06/10 07:27:15;;;;;;;5.05;1.33;;;;;;;19.89;47.49;98640.09;125997;1092;22785;-82
2021/06/10 07:29:44;;;;;;;1.85;1.10;;;;;;;20.00;49.72;98642.70;126285;1093;26235;-82
2021/06/10 07:32:11;;;;;;;3.90;1.30;;;;;;;20.09;48.05;98641.69;126254;1092;22761;-81
2021/06/10 07:34:39;;;;;;;3.70;1.38;;;;;;;20.16;48.33;98646.02;126099;1093;22836;-82
2021/06/10 07:37:07;;;;;;;2.05;1.80;;;;;;;20.25;49.37;98649.72;126088;1093;22758;-82
2021/06/10 07:39:35;;;;;;;2.28;1.58;;;;;;;20.35;48.37;98654.25;126064;1093;22916;-82
2021/06/10 07:42:02;;;;;;;2.85;1.65;;;;;;;20.41;47.07;98641.95;126268;1093;25948;-81
2021/06/10 07:44:29;;;;;;;1.63;1.50;;;;;;;20.43;47.73;98643.31;126006;1093;22758;-82
2021/06/10 07:46:57;;;;;;;4.25;1.80;;;;;;;20.55;49.50;98644.74;126034;1093;22757;-82
2021/06/10 07:49:24;;;;;;;5.23;2.15;;;;;;;20.64;49.24;98638.20;126313;1093;24440;-82
2021/06/10 07:51:51;;;;;;;2.48;2.13;;;;;;;20.71;48.29;98640.56;126035;1093;22784;-82
2021/06/10 07:54:18;;;;;;;2.00;1.90;;;;;;;20.81;48.75;98634.83;126088;1093;27504;-82
2021/06/10 07:56:45;;;;;;;3.80;2.13;;;;;;;20.93;47.98;98639.02;126004;1093;22783;-82
2021/06/10 07:59:12;;;;;;;3.23;2.18;;;;;;;20.90;47.20;98648.77;126041;1093;22962;-81
2021/06/10 08:01:39;;;;;;;4.05;2.05;;;;;;;20.93;48.25;98648.16;126259;1093;22757;-82
2021/06/10 08:04:07;;;;;;;3.03;1.90;;;;;;;20.99;47.95;98641.38;126032;1092;27192;-81
2021/06/10 08:06:34;;;;;;;2.03;1.83;;;;;;;21.08;48.08;98647.01;126121;1093;22854;-81
2021/06/10 08:09:02;;;;;;;4.33;2.28;;;;;;;21.11;48.29;98645.59;126117;1093;24559;-82
2021/06/10 08:11:29;;;;;;;2.60;2.10;;;;;;;21.12;49.48;98644.44;126209;1093;26235;-80
2021/06/10 08:13:56;;;;;;;3.15;2.33;;;;;;;21.14;46.92;98642.17;126234;1093;22784;-81
2021/06/10 08:16:24;;;;;;;3.80;2.20;;;;;;;21.21;47.70;98640.64;125985;1093;24536;-82
2021/06/10 08:18:50;;;;;;;4.00;2.00;;;;;;;21.28;46.65;98640.19;126030;1093;24440;-80
2021/06/10 08:21:17;;;;;;;3.68;2.20;;;;;;;21.33;48.35;98639.27;126042;1093;25126;-82
2021/06/10 08:23:44;;;;;;;3.05;2.20;;;;;;;21.47;48.21;98642.04;126526;1093;22772;-82
2021/06/10 08:26:11;;;;;;;4.68;2.20;;;;;;;21.41;46.73;98638.54;126228;1093;26321;-81
2021/06/10 08:28:38;;;;;;;3.15;2.20;;;;;;;21.42;48.05;98642.93;126058;1093;26245;-82
2021/06/10 08:31:05;;;;;;;1.80;1.70;;;;;;;21.55;46.01;98644.89;126221;1093;22775;-81
2021/06/10 08:33:33;;;;;;;2.93;1.90;;;;;;;21.64;46.39;98649.66;126202;1093;22765;-82
2021/06/10 08:36:00;;;;;;;4.50;2.65;;;;;;;21.71;46.36;98639.80;126135;1092;25865;-82
2021/06/10 08:38:27;;;;;;;5.90;2.10;;;;;;;21.85;45.84;98645.29;126206;1093;22757;-81
2021/06/10 08:40:55;;;;;;;4.75;4.25;;;;;;;21.94;45.98;98643.39;126070;1093;22758;-82
2021/06/10 08:43:22;;;;;;;3.23;1.97;;;;;;;22.06;45.97;98637.28;126017;1093;22915;-82
2021/06/10 08:45:59;;;;;;;2.53;2.33;;;;;;;22.10;46.75;98654.11;126262;1092;22966;-81
2021/06/10 08:48:31;;;;;;;2.93;2.10;;;;;;;22.05;46.68;98643.14;126098;1092;22754;-81
2021/06/10 08:50:59;;;;;;;2.05;1.80;;;;;;;21.97;45.25;98641.92;126280;1092;23508;-82
2021/06/10 08:53:26;;;;;;;4.85;1.55;;;;;;;21.95;43.13;98656.10;126119;1093;22842;-81
2021/06/10 08:55:57;;;;;;;3.55;2.10;;;;;;;21.99;43.67;98647.97;126072;1093;22918;-82
2021/06/10 08:58:25;;;;;;;2.38;1.85;;;;;;;22.12;43.17;98647.09;126016;1093;24556;-82
2021/06/10 09:00:55;;;;;;;1.50;1.40;;;;;;;22.33;44.74;98649.38;126011;1093;22824;-82
2021/06/10 09:03:27;;;;;;;3.77;1.70;;;;;;;22.45;41.88;98645.98;126092;1092;22781;-82
2021/06/10 09:06:17;;;;;;;3.68;1.70;;;;;;;22.40;40.98;98648.90;126262;1093;22780;-82
2021/06/10 09:08:46;;;;;;;2.55;1.63;;;;;;;22.40;42.56;98646.96;126234;1093;27231;-82
2021/06/10 09:11:18;;;;;;;2.78;1.70;;;;;;;22.58;43.73;98653.41;126103;1093;23305;-82
2021/06/10 09:14:09;;;;;;;2.63;1.43;;;;;;;22.83;41.62;98640.77;126165;1093;24402;-83
2021/06/10 09:16:40;;;;;;;4.37;1.37;;;;;;;22.96;39.51;98646.52;126039;1092;22811;-81
2021/06/10 09:19:16;;;;;;;1.45;1.30;;;;;;;22.92;40.11;98657.45;126027;1093;22899;-82
2021/06/10 09:21:58;;;;;;;2.70;1.65;;;;;;;22.98;40.72;98652.56;126157;1093;22771;-81
2021/06/10 09:24:33;;;;;;;1.48;1.35;;;;;;;23.04;42.22;98648.52;126226;1093;26252;-82
2021/06/10 09:27:16;;;;;;;2.00;1.65;;;;;;;23.21;42.31;98647.75;126019;1093;22842;-82
2021/06/10 09:29:51;;;;;;;2.25;1.85;;;;;;;23.39;41.21;98651.36;126050;1092;22763;-83
2021/06/10 09:32:33;;;;;;;2.35;1.65;;;;;;;23.50;40.27;98649.92;126155;1093;22804;-83
2021/06/10 09:35:14;;;;;;;1.90;1.45;;;;;;;23.61;40.31;98651.22;126194;1092;22757;-82
2021/06/10 09:38:19;;;;;;;2.48;1.50;;;;;;;23.58;40.56;98643.53;126217;1093;22756;-82
2021/06/10 09:40:48;;;;;;;3.78;1.63;;;;;;;23.62;40.58;98652.03;126181;1093;22922;-83
2021/06/10 09:43:15;;;;;;;3.20;1.60;;;;;;;23.72;40.03;98656.46;126255;1093;22839;-82
2021/06/10 09:45:47;;;;;;;6.48;2.20;;;;;;;23.75;40.21;98658.59;126301;1092;22762;-83
2021/06/10 09:48:14;;;;;;;2.88;1.70;;;;;;;23.87;39.26;98650.44;126197;1093;24283;-83
2021/06/10 09:50:43;;;;;;;2.20;1.45;;;;;;;24.03;37.73;98659.91;126193;1093;26232;-83
2021/06/10 09:53:28;;;;;;;2.35;1.20;;;;;;;24.07;37.95;98648.94;126160;1092;22757;-83
2021/06/10 09:55:59;;;;;;;3.70;1.60;;;;;;;24.19;38.98;98651.86;126207;1093;22839;-82
2021/06/10 09:58:32;;;;;;;1.33;1.23;;;;;;;24.23;37.51;98655.61;126242;1093;22766;-82
2021/06/10 10:01:11;;;;;;;2.20;1.73;;;;;;;24.23;37.41;98652.82;126210;1092;22856;-82
2021/06/10 10:03:42;;;;;;;;;;;;;;;24.20;36.42;98656.26;126242;1093;22751;-82
2021/06/10 10:06:27;;;;;;;1.55;1.43;;;;;;;24.29;36.26;98652.65;126039;1093;21521;-82
2021/06/10 10:08:56;;;;;;;1.60;1.30;;;;;;;24.25;35.73;98656.09;126237;1093;22769;-82
2021/06/10 10:11:37;;;;;;;2.15;1.58;;;;;;;24.26;38.62;98652.17;126153;1093;24428;-83
2021/06/10 10:14:06;;;;;;;3.38;2.08;;;;;;;24.44;38.51;98650.15;126212;1092;22812;-83
2021/06/10 10:16:36;;;;;;;4.83;1.53;;;;;;;24.55;35.43;98649.82;126241;1093;22767;-82
2021/06/10 10:19:04;;;;;;;3.23;1.40;;;;;;;24.36;37.58;98645.41;126166;1093;24396;-83
2021/06/10 10:21:36;;;;;;;2.23;1.40;;;;;;;23.84;37.28;98645.53;126168;1093;22906;-82
2021/06/10 10:24:08;;;;;;;2.83;1.48;;;;;;;23.70;37.77;98637.32;126273;1092;22757;-82
2021/06/10 10:26:37;;;;;;;2.47;1.60;;;;;;;23.98;39.22;98635.03;126246;1092;22912;-83
2021/06/10 10:29:08;;;;;;;1.73;1.33;;;;;;;24.39;38.14;98635.59;126123;1092;22935;-83
2021/06/10 10:31:36;;;;;;;3.03;1.50;;;;;;;24.45;35.32;98640.66;126218;1093;24399;-81
2021/06/10 10:34:03;;;;;;;3.20;1.40;;;;;;;24.59;36.29;98628.50;126158;1092;26236;-83
2021/06/10 10:36:39;;;;;;;4.70;1.50;;;;;;;24.76;35.88;98627.63;126182;1093;22807;-82
2021/06/10 10:39:08;;;;;;;1.75;1.30;;;;;;;24.73;34.67;98623.52;126193;1092;25868;-84
2021/06/10 10:41:55;;;;;;;2.20;1.20;;;;;;;24.75;35.37;98624.00;126197;1093;23227;-82
2021/06/10 10:44:31;;;;;;;2.53;1.20;;;;;;;24.80;33.81;98626.59;126236;1092;26226;-82
2021/06/10 10:47:09;;;;;;;1.73;1.30;;;;;;;24.75;34.79;98628.76;126210;1093;22774;-82
2021/06/10 10:50:01;;;;;;;2.60;1.60;;;;;;;24.70;35.80;98621.43;126065;1093;22754;-83
2021/06/10 10:52:30;;;;;;;3.18;1.30;;;;;;;25.03;35.96;98597.64;126166;1093;27343;-83
2021/06/10 10:55:30;;;;;;;1.55;1.30;;;;;;;25.20;35.78;98603.91;126187;1093;22784;-82
2021/06/10 10:58:02;;;;;;;2.70;1.85;;;;;;;24.89;33.90;98609.84;126158;1093;22861;-83
2021/06/10 11:00:50;;;;;;;1.88;1.08;;;;;;;24.82;37.06;98615.97;126152;1093;22781;-84
2021/06/10 11:03:18;;;;;;;1.53;1.30;;;;;;;24.79;36.57;98608.27;126168;1093;22855;-81
2021/06/10 11:05:46;;;;;;;2.13;1.85;;;;;;;24.76;35.71;98611.72;126196;1093;22755;-82
2021/06/10 11:08:13;;;;;;;1.50;1.20;;;;;;;24.75;36.88;98607.28;126039;1093;22756;-82
2021/06/10 11:10:49;;;;;;;2.28;1.50;;;;;;;24.87;35.52;98601.01;126174;1093;26745;-81
2021/06/10 11:13:17;;;;;;;6.90;1.73;;;;;;;24.59;34.82;98614.58;126149;1093;22805;-82
2021/06/10 11:15:44;;;;;;;2.70;1.28;;;;;;;24.51;36.03;98604.28;126157;1093;22746;-82
2021/06/10 11:18:11;;;;;;;2.80;1.10;;;;;;;24.64;34.80;98612.42;126183;1093;22788;-81
2021/06/10 11:20:37;;;;;;;1.43;1.20;;;;;;;24.76;35.06;98597.79;126049;1093;22758;-82
2021/06/10 11:23:19;;;;;;;8.35;1.20;;;;;;;24.85;35.37;98594.16;126216;1093;25084;-83
2021/06/10 11:25:50;;;;;;;2.50;1.20;;;;;;;25.15;33.79;98586.58;126225;1093;22732;-82
2021/06/10 11:28:19;;;;;;;1.38;1.25;;;;;;;25.29;34.11;98573.22;126192;1093;22777;-83
2021/06/10 11:30:51;;;;;;;1.63;1.03;;;;;;;25.27;35.03;98569.95;126100;1093;22831;-84
2021/06/10 11:33:25;;;;;;;1.60;1.20;;;;;;;25.34;35.82;98572.20;126318;1092;22765;-83
2021/06/10 11:35:53;;;;;;;1.45;1.20;;;;;;;25.47;34.33;98573.08;126183;1092;22777;-82
2021/06/10 11:38:23;;;;;;;3.15;1.05;;;;;;;25.59;34.85;98570.34;126086;1093;26251;-83
2021/06/10 11:41:04;;;;;;;2.30;1.00;;;;;;;25.71;32.09;98562.03;126168;1093;26235;-82